createdAt,value
2018-05-21T03:02:37.980Z,8.73
2018-05-21T03:05:06.012Z,8.97
2018-05-21T03:07:34.822Z,9.17
2018-05-21T03:10:03.793Z,8.57
2018-05-21T03:12:31.835Z,7.97
2018-05-21T03:14:59.880Z,7.57
2018-05-21T03:17:28.320Z,7.77
2018-05-21T03:19:56.443Z,6.93
2018-05-21T03:22:24.493Z,7.50
2018-05-21T03:24:52.715Z,7.57
2018-05-21T03:27:20.758Z,8.57
2018-05-21T03:29:48.793Z,10.50
2018-05-21T03:32:17.025Z,8.97
2018-05-21T03:34:45.075Z,11.70
2018-05-21T03:37:13.101Z,9.63
2018-05-21T03:39:41.166Z,9.83
2018-05-21T03:42:09.961Z,7.80
2018-05-21T03:44:38.001Z,8.80
2018-05-21T03:47:06.079Z,8.37
2018-05-21T03:49:34.114Z,8.87
2018-05-21T03:52:02.151Z,8.77
2018-05-21T03:54:30.354Z,8.33
2018-05-21T03:56:58.448Z,8.03
2018-05-21T03:59:38.204Z,7.47
2018-05-21T04:02:17.909Z,6.90
2018-05-21T04:04:45.969Z,7.17
2018-05-21T04:07:14.180Z,6.53
2018-05-21T04:09:42.211Z,6.87
2018-05-21T04:12:10.441Z,5.50
2018-05-21T04:14:38.487Z,6.40
2018-05-21T04:17:06.516Z,6.27
2018-05-21T04:19:35.650Z,5.57
2018-05-21T04:22:03.693Z,5.82
2018-05-21T04:24:31.736Z,5.50
2018-05-21T04:27:00.662Z,6.00
2018-05-21T04:29:28.688Z,5.07
2018-05-21T04:31:56.720Z,5.00
2018-05-21T04:34:24.868Z,4.87
2018-05-21T04:36:52.915Z,4.87
2018-05-21T04:39:20.954Z,5.27
2018-05-21T04:41:49.013Z,5.13
2018-05-21T04:44:17.044Z,4.90
2018-05-21T04:46:45.090Z,4.70
2018-05-21T04:49:13.329Z,5.03
2018-05-21T04:51:41.370Z,4.90
2018-05-21T04:54:09.437Z,4.30
2018-05-21T04:56:38.594Z,4.57
2018-05-21T04:59:06.632Z,4.60
2018-05-21T18:02:39.208Z,4.20
2018-05-21T18:05:07.245Z,3.87
2018-05-21T18:07:35.301Z,4.20
2018-05-21T18:10:03.632Z,3.37
2018-05-21T18:12:31.699Z,3.33
2018-05-21T18:14:59.955Z,3.50
2018-05-21T18:17:28.012Z,3.03
2018-05-21T18:19:56.093Z,2.80
2018-05-21T18:22:24.126Z,2.70
2018-05-21T18:24:52.436Z,2.50
2018-05-21T18:27:20.475Z,2.40
